createdAt,value
2023-05-20T00:00:28.466Z,10.10
2023-05-20T00:03:17.985Z,10.60
2023-05-20T00:05:47.456Z,8.80
2023-05-20T00:08:18.810Z,8.60
2023-05-20T00:10:47.871Z,9.10
2023-05-20T00:13:16.659Z,8.30
2023-05-20T00:15:46.051Z,8.10
2023-05-20T00:18:15.041Z,9.70
2023-05-20T00:20:44.248Z,10.90
2023-05-20T00:23:13.243Z,9.10
2023-05-20T00:25:42.214Z,10.50
2023-05-20T00:28:11.423Z,8.40
2023-05-20T00:30:43.790Z,9.20
2023-05-20T00:33:13.242Z,7.90
2023-05-20T00:35:43.006Z,10.20
2023-05-20T00:38:12.228Z,10.60
2023-05-20T00:40:41.395Z,9.70
2023-05-20T00:43:11.614Z,8.80
2023-05-20T00:45:40.823Z,9.30
2023-05-20T00:48:10.106Z,9.40
2023-05-20T00:50:39.302Z,10.30
2023-05-20T00:53:08.300Z,8.40
2023-05-20T00:55:37.390Z,8.30
2023-05-20T00:58:06.481Z,9.50
2023-05-20T01:00:35.371Z,8.00
2023-05-20T01:03:04.762Z,9.10
2023-05-20T01:05:34.221Z,7.90
2023-05-20T01:08:03.262Z,9.00
2023-05-20T01:10:32.174Z,8.10
2023-05-20T01:13:03.907Z,8.70
2023-05-20T01:15:33.255Z,8.90
2023-05-20T01:18:02.873Z,9.10
2023-05-20T01:20:34.840Z,9.50
2023-05-20T01:23:04.556Z,8.60
2023-05-20T01:25:33.706Z,8.50
2023-05-20T01:28:02.877Z,9.40
2023-05-20T01:30:35.903Z,9.30
2023-05-20T01:33:12.175Z,8.10
2023-05-20T01:35:41.830Z,8.00
2023-05-20T01:38:11.949Z,9.20
2023-05-20T01:40:42.339Z,9.50
2023-05-20T01:43:11.268Z,9.10
2023-05-20T01:45:42.504Z,8.30
2023-05-20T01:48:12.053Z,8.10
2023-05-20T01:50:41.442Z,8.80
2023-05-20T01:53:10.618Z,8.00
2023-05-20T01:55:39.615Z,8.60
2023-05-20T01:58:08.605Z,8.30
2023-05-20T02:00:38.653Z,8.10
2023-05-20T02:03:07.576Z,8.40
2023-05-20T02:05:38.528Z,8.70
2023-05-20T02:08:08.257Z,8.60
2023-05-20T02:10:37.352Z,8.40
2023-05-20T02:13:06.352Z,8.10
2023-05-20T02:15:36.438Z,7.90
2023-05-20T02:18:05.929Z,8.40
2023-05-20T02:20:41.785Z,8.60
2023-05-20T02:23:11.420Z,8.10
2023-05-20T02:25:41.481Z,9.20
2023-05-20T02:28:12.651Z,9.80
2023-05-20T02:30:41.575Z,8.10
2023-05-20T02:33:10.883Z,10.30
2023-05-20T02:35:40.477Z,8.50
2023-05-20T02:38:09.563Z,8.40
2023-05-20T02:40:38.989Z,8.40
2023-05-20T02:43:08.185Z,8.00
2023-05-20T02:45:37.326Z,9.00
2023-05-20T02:48:06.652Z,9.70
2023-05-20T02:50:41.671Z,9.20
2023-05-20T02:53:10.813Z,9.20
2023-05-20T02:55:40.953Z,8.90
2023-05-20T02:58:10.011Z,8.80
2023-05-20T03:00:41.311Z,8.50
2023-05-20T03:03:14.126Z,7.50
2023-05-20T03:05:46.711Z,9.60
2023-05-20T03:08:15.692Z,8.90
2023-05-20T03:10:44.494Z,8.60
2023-05-20T03:13:15.587Z,9.40
2023-05-20T03:15:47.627Z,9.00
2023-05-20T03:18:16.585Z,8.20
2023-05-20T03:20:47.103Z,11.70
2023-05-20T03:23:16.401Z,9.90
2023-05-20T03:25:45.512Z,9.10
2023-05-20T03:28:14.715Z,8.50
2023-05-20T03:30:43.901Z,8.00
2023-05-20T03:33:12.956Z,9.20
2023-05-20T03:35:43.090Z,8.90
2023-05-20T03:38:12.177Z,10.00
2023-05-20T03:40:41.899Z,9.90
2023-05-20T03:43:12.123Z,11.10
2023-05-20T03:45:41.208Z,10.60
2023-05-20T03:48:10.107Z,9.00
2023-05-20T03:50:38.999Z,9.60
2023-05-20T03:53:08.099Z,8.30
2023-05-20T03:55:41.150Z,8.60
2023-05-20T03:58:10.276Z,9.80
2023-05-20T04:00:40.153Z,10.50
2023-05-20T04:03:09.254Z,8.50
2023-05-20T04:05:38.281Z,10.50
2023-05-20T04:08:15.981Z,12.40
2023-05-20T04:10:45.064Z,9.70
2023-05-20T04:13:14.390Z,9.20
2023-05-20T04:15:43.616Z,9.20
2023-05-20T04:18:13.727Z,8.00
2023-05-20T04:20:42.975Z,8.10
2023-05-20T04:23:11.959Z,9.60
2023-05-20T04:25:42.548Z,9.00
2023-05-20T04:28:14.552Z,9.60
2023-05-20T04:30:45.615Z,8.50
2023-05-20T04:33:15.306Z,9.00
2023-05-20T04:35:44.607Z,8.30
2023-05-20T04:38:13.635Z,8.00
2023-05-20T04:40:42.800Z,10.60
2023-05-20T04:43:11.705Z,9.60
2023-05-20T04:45:40.779Z,8.00
2023-05-20T04:48:10.160Z,9.20
2023-05-20T04:50:39.581Z,9.20
2023-05-20T04:53:09.708Z,9.20
2023-05-20T04:55:39.711Z,9.10
2023-05-20T04:58:09.483Z,8.60
2023-05-20T05:00:39.226Z,10.40
2023-05-20T05:03:09.108Z,10.20
2023-05-20T05:05:39.453Z,8.80
2023-05-20T05:08:09.581Z,9.20
2023-05-20T05:10:41.959Z,10.40
2023-05-20T05:13:11.889Z,8.60
2023-05-20T05:15:40.891Z,10.20
2023-05-20T05:18:09.939Z,8.40
2023-05-20T05:20:39.417Z,8.90
2023-05-20T05:23:08.591Z,9.20
2023-05-20T05:25:37.688Z,9.70
2023-05-20T05:28:06.844Z,9.10
2023-05-20T05:30:36.152Z,10.50
2023-05-20T05:33:05.536Z,12.20
2023-05-20T05:35:34.997Z,9.80
2023-05-20T05:38:04.362Z,8.30
2023-05-20T05:40:33.254Z,10.30
2023-05-20T05:43:02.339Z,10.00
2023-05-20T05:45:31.985Z,9.50
2023-05-20T05:48:01.278Z,9.60
2023-05-20T05:50:30.323Z,7.60
2023-05-20T05:52:59.431Z,9.50
2023-05-20T05:55:29.450Z,9.00
2023-05-20T05:57:58.635Z,8.40
2023-05-20T06:00:27.697Z,8.90
2023-05-20T06:02:57.163Z,8.70
2023-05-20T06:05:33.126Z,10.10
2023-05-20T06:08:02.898Z,8.30
2023-05-20T06:10:33.745Z,8.80
2023-05-20T06:13:03.053Z,8.40
2023-05-20T06:15:33.349Z,8.30
2023-05-20T06:18:04.976Z,8.40
2023-05-20T06:20:34.923Z,9.20
2023-05-20T06:23:05.356Z,9.30
2023-05-20T06:25:48.242Z,9.30
2023-05-20T06:28:18.087Z,9.70
2023-05-20T06:30:47.429Z,8.90
2023-05-20T06:33:18.528Z,8.70
2023-05-20T06:35:47.940Z,9.50
2023-05-20T06:38:16.976Z,7.30
2023-05-20T06:40:46.257Z,7.80
2023-05-20T06:43:16.784Z,7.80
2023-05-20T06:45:51.366Z,6.90
2023-05-20T06:48:40.039Z,7.60
2023-05-20T06:51:10.351Z,8.30
2023-05-20T06:53:40.816Z,8.10
2023-05-20T06:56:10.274Z,8.10
2023-05-20T06:58:39.254Z,7.30
2023-05-20T07:01:08.772Z,6.80
2023-05-20T07:03:38.005Z,7.30
2023-05-20T07:06:07.782Z,8.00
2023-05-20T07:08:37.065Z,8.30
2023-05-20T07:11:06.482Z,7.70
2023-05-20T07:13:35.754Z,6.00
2023-05-20T07:16:05.217Z,6.80
2023-05-20T07:18:34.263Z,7.10
2023-05-20T07:21:04.291Z,6.90
2023-05-20T07:23:42.207Z,8.20
2023-05-20T07:26:11.784Z,7.30
2023-05-20T07:28:41.088Z,6.90
2023-05-20T07:31:10.444Z,6.70
2023-05-20T07:33:46.308Z,8.00
2023-05-20T07:36:16.041Z,7.90
2023-05-20T07:38:56.848Z,6.50
2023-05-20T07:41:33.497Z,7.40
2023-05-20T07:44:05.302Z,6.90
2023-05-20T07:46:35.847Z,6.90
2023-05-20T07:49:06.020Z,7.00
2023-05-20T07:51:36.122Z,5.70
2023-05-20T07:54:05.103Z,5.70
2023-05-20T07:56:34.512Z,7.10
2023-05-20T07:59:03.804Z,7.10
2023-05-20T08:01:41.760Z,5.90
2023-05-20T08:04:10.946Z,6.20
2023-05-20T08:06:40.300Z,6.00
2023-05-20T08:09:12.373Z,5.70
2023-05-20T08:11:45.719Z,6.20
2023-05-20T08:14:16.912Z,7.50
2023-05-20T08:16:47.990Z,6.70
2023-05-20T08:19:17.210Z,6.60
2023-05-20T08:21:50.670Z,6.80
2023-05-20T08:24:19.734Z,6.10
2023-05-20T08:26:49.575Z,6.60
2023-05-20T08:29:19.292Z,7.40
2023-05-20T08:31:48.251Z,6.20
2023-05-20T08:34:18.500Z,6.00
2023-05-20T08:36:48.159Z,5.90
2023-05-20T08:39:17.065Z,5.50
2023-05-20T08:41:47.629Z,6.20
2023-05-20T08:44:16.698Z,5.90
2023-05-20T08:46:46.862Z,6.00
2023-05-20T08:49:16.519Z,5.80
2023-05-20T08:51:46.746Z,5.00
2023-05-20T08:54:17.333Z,4.90
2023-05-20T08:56:46.489Z,5.90
2023-05-20T08:59:15.764Z,5.90
2023-05-20T09:01:44.984Z,4.80
2023-05-20T09:04:14.058Z,5.40
2023-05-20T09:06:44.570Z,5.10
2023-05-20T09:09:14.236Z,5.80
2023-05-20T09:11:43.596Z,5.40
2023-05-20T09:14:12.586Z,6.20
2023-05-20T09:16:42.021Z,5.40
2023-05-20T09:19:11.242Z,5.10
2023-05-20T09:21:42.023Z,5.90
2023-05-20T09:24:11.017Z,5.50
2023-05-20T09:26:40.928Z,6.10
2023-05-20T09:29:10.168Z,5.10
2023-05-20T09:31:39.858Z,6.20
2023-05-20T09:34:08.931Z,7.10
2023-05-20T09:36:40.061Z,5.70
2023-05-20T09:39:13.279Z,5.70
2023-05-20T09:42:11.643Z,5.70
2023-05-20T09:44:41.643Z,5.40
2023-05-20T09:47:10.646Z,5.60
2023-05-20T09:49:39.752Z,6.30
2023-05-20T09:52:08.854Z,5.70
2023-05-20T09:54:37.947Z,5.70
2023-05-20T09:57:07.037Z,5.70
2023-05-20T09:59:37.914Z,6.30
2023-05-20T10:02:07.299Z,6.50
2023-05-20T10:04:43.274Z,5.30
2023-05-20T10:07:42.586Z,5.60
2023-05-20T10:10:21.216Z,4.80
2023-05-20T10:13:13.383Z,5.50
2023-05-20T10:15:54.994Z,6.00
2023-05-20T10:18:42.532Z,6.00
2023-05-20T10:21:18.257Z,5.60
2023-05-20T10:23:47.153Z,5.50
2023-05-20T10:26:16.360Z,5.90
2023-05-20T10:28:45.395Z,6.00
2023-05-20T10:31:22.285Z,7.00
2023-05-20T10:33:53.666Z,6.50
2023-05-20T10:36:32.692Z,5.80
2023-05-20T10:39:01.891Z,6.20
2023-05-20T10:41:31.087Z,6.90
2023-05-20T10:44:09.072Z,5.60
2023-05-20T10:47:00.034Z,5.60
2023-05-20T10:49:35.629Z,6.30
2023-05-20T10:52:04.908Z,6.00
2023-05-20T10:54:37.845Z,6.40
2023-05-20T10:57:12.442Z,6.60
2023-05-20T10:59:42.071Z,6.50
2023-05-20T11:02:13.899Z,5.60
2023-05-20T11:04:47.315Z,5.50
2023-05-20T11:07:29.344Z,6.00
2023-05-20T11:09:58.794Z,6.00
2023-05-20T11:12:28.219Z,6.10
2023-05-20T11:14:57.186Z,6.70
2023-05-20T11:17:26.405Z,7.30
2023-05-20T11:19:55.377Z,5.90
2023-05-20T11:22:24.675Z,8.60
2023-05-20T11:24:53.678Z,7.30
2023-05-20T11:27:22.671Z,6.20
2023-05-20T11:29:52.580Z,8.40
2023-05-20T11:32:21.729Z,7.80
2023-05-20T11:34:52.149Z,6.60
2023-05-20T11:37:22.466Z,6.00
2023-05-20T11:40:08.313Z,5.40
2023-05-20T11:42:37.210Z,5.70
2023-05-20T11:45:06.898Z,5.00
2023-05-20T11:47:36.138Z,6.30
2023-05-20T11:50:05.483Z,5.60
2023-05-20T11:52:35.505Z,6.50
2023-05-20T11:55:04.832Z,6.40
2023-05-20T11:57:37.094Z,5.20
2023-05-20T12:00:11.197Z,5.80
2023-05-20T12:02:40.156Z,5.20
2023-05-20T12:05:09.889Z,6.20
2023-05-20T12:07:39.016Z,7.70
2023-05-20T12:10:08.634Z,6.80
2023-05-20T12:12:37.857Z,5.10
2023-05-20T12:15:07.623Z,6.20
2023-05-20T12:17:49.321Z,6.00
2023-05-20T12:20:20.255Z,5.40
2023-05-20T12:22:49.242Z,5.10
2023-05-20T12:25:19.625Z,5.40
2023-05-20T12:27:48.766Z,5.10
2023-05-20T12:30:19.424Z,4.80
2023-05-20T12:32:50.324Z,5.20
2023-05-20T12:35:28.574Z,5.10
2023-05-20T12:37:57.553Z,5.40
2023-05-20T12:40:26.795Z,5.20
2023-05-20T12:42:56.013Z,5.20
2023-05-20T12:45:24.801Z,6.90
2023-05-20T12:47:55.352Z,5.90
2023-05-20T12:50:24.949Z,6.80
2023-05-20T12:52:53.941Z,6.20
2023-05-20T12:55:22.922Z,8.30
2023-05-20T12:57:51.922Z,5.40
2023-05-20T13:00:20.779Z,5.20
2023-05-20T13:02:49.984Z,4.60
2023-05-20T13:05:19.500Z,4.70
2023-05-20T13:07:49.356Z,5.20
2023-05-20T13:10:18.632Z,4.90
2023-05-20T13:12:48.124Z,4.20
2023-05-20T13:15:18.061Z,4.00
2023-05-20T13:17:46.954Z,3.50
2023-05-20T13:20:17.770Z,4.00
2023-05-20T13:22:50.694Z,2.80
2023-05-20T13:25:19.734Z,3.10
2023-05-20T13:27:51.601Z,3.60
2023-05-20T13:30:20.685Z,3.50
2023-05-20T13:32:49.801Z,2.80
2023-05-20T13:35:18.977Z,2.90
2023-05-20T13:37:47.991Z,3.80
2023-05-20T13:40:17.890Z,4.10
2023-05-20T13:42:46.988Z,3.90
2023-05-20T13:45:16.494Z,3.90
2023-05-20T13:47:45.998Z,3.80
2023-05-20T13:50:14.888Z,4.30
2023-05-20T13:52:43.669Z,4.60
2023-05-20T13:55:13.729Z,4.00
2023-05-20T13:57:43.432Z,4.70
2023-05-20T14:00:13.185Z,4.30
2023-05-20T14:02:42.249Z,4.90
2023-05-20T14:05:11.473Z,4.40
2023-05-20T14:07:40.597Z,4.70
2023-05-20T14:10:09.965Z,5.00
2023-05-20T14:12:38.958Z,5.10
2023-05-20T14:15:08.464Z,4.90
2023-05-20T14:17:37.368Z,4.90
2023-05-20T14:20:07.323Z,4.90
2023-05-20T14:22:36.477Z,5.20
2023-05-20T14:25:06.737Z,4.50
2023-05-20T14:27:35.907Z,4.50
2023-05-20T14:30:05.501Z,5.00
2023-05-20T14:32:34.531Z,6.50
2023-05-20T14:35:05.018Z,5.60
2023-05-20T14:37:34.120Z,6.30
2023-05-20T14:40:05.131Z,6.40
2023-05-20T14:42:34.450Z,5.30
2023-05-20T14:45:04.417Z,6.00
2023-05-20T14:47:34.081Z,6.80
2023-05-20T14:50:03.086Z,6.30
2023-05-20T14:52:32.383Z,5.60
2023-05-20T14:55:01.571Z,6.50
2023-05-20T14:57:30.658Z,7.20
2023-05-20T14:59:59.758Z,6.60
2023-05-20T15:02:28.769Z,5.40
2023-05-20T15:04:57.900Z,5.10
2023-05-20T15:07:26.928Z,4.90
2023-05-20T15:09:55.925Z,6.00
2023-05-20T15:12:25.166Z,6.40
2023-05-20T15:14:54.220Z,6.00
2023-05-20T15:17:23.171Z,5.80
2023-05-20T15:19:52.210Z,5.70
2023-05-20T15:22:21.399Z,5.10
2023-05-20T15:24:50.408Z,4.90
2023-05-20T15:27:19.376Z,7.00
2023-05-20T15:29:49.367Z,5.20
2023-05-20T15:32:20.502Z,4.70
2023-05-20T15:34:49.445Z,5.70
2023-05-20T15:37:18.455Z,4.80
2023-05-20T15:39:47.662Z,4.60
2023-05-20T15:42:18.863Z,5.30
2023-05-20T15:44:47.866Z,4.80
2023-05-20T15:47:17.258Z,5.40
2023-05-20T15:49:46.350Z,5.20
2023-05-20T15:52:15.518Z,5.20
2023-05-20T15:54:44.741Z,4.30
2023-05-20T15:57:13.747Z,4.70
2023-05-20T15:59:42.831Z,3.90
2023-05-20T16:02:11.898Z,4.40
2023-05-20T16:04:41.134Z,4.20
2023-05-20T16:07:10.538Z,4.70
2023-05-20T16:09:39.725Z,5.70
2023-05-20T16:12:08.720Z,5.50
2023-05-20T16:14:37.833Z,5.30
2023-05-20T16:17:06.829Z,5.50
2023-05-20T16:19:36.063Z,5.60
2023-05-20T16:22:05.623Z,5.80
2023-05-20T16:24:34.600Z,5.40
2023-05-20T16:27:03.784Z,5.20
2023-05-20T16:29:33.000Z,5.00
2023-05-20T16:32:02.395Z,5.80
2023-05-20T16:34:31.387Z,5.00
2023-05-20T16:37:00.388Z,5.00
2023-05-20T16:39:29.513Z,5.70
2023-05-20T16:41:58.392Z,5.00
2023-05-20T16:44:27.681Z,4.60
2023-05-20T16:46:56.637Z,4.80
2023-05-20T16:49:25.672Z,5.10
2023-05-20T16:51:54.948Z,5.70
2023-05-20T16:54:24.059Z,5.70
2023-05-20T16:56:53.128Z,5.50
2023-05-20T16:59:22.330Z,5.70
2023-05-20T17:01:51.312Z,5.90
2023-05-20T17:04:20.345Z,5.60
2023-05-20T17:06:50.558Z,5.60
2023-05-20T17:09:19.624Z,5.70
2023-05-20T17:11:48.524Z,5.70
2023-05-20T17:14:17.507Z,4.90
2023-05-20T17:16:46.613Z,4.80
2023-05-20T17:19:16.069Z,4.80
2023-05-20T17:21:46.069Z,4.60
2023-05-20T17:24:15.732Z,5.20
2023-05-20T17:26:44.716Z,5.20
2023-05-20T17:29:13.604Z,5.30
2023-05-20T17:31:42.705Z,5.00
2023-05-20T17:34:11.844Z,4.70
2023-05-20T17:36:40.788Z,5.30
2023-05-20T17:39:10.399Z,7.10
2023-05-20T17:41:39.517Z,5.40
2023-05-20T17:44:09.000Z,7.30
2023-05-20T17:46:38.396Z,5.60
2023-05-20T17:49:07.493Z,7.00
2023-05-20T17:51:36.598Z,7.30
2023-05-20T17:54:06.739Z,8.30
2023-05-20T17:56:35.896Z,7.50
2023-05-20T17:59:04.872Z,7.80
2023-05-20T18:01:36.681Z,7.90
2023-05-20T18:04:06.774Z,7.80
2023-05-20T18:06:36.819Z,8.40
2023-05-20T18:09:06.288Z,8.00
2023-05-20T18:11:35.376Z,8.40
2023-05-20T18:14:04.366Z,7.30
2023-05-20T18:16:33.450Z,7.30
2023-05-20T18:19:03.403Z,6.60
2023-05-20T18:21:32.266Z,8.00
2023-05-20T18:24:01.435Z,7.00
2023-05-20T18:26:30.368Z,6.80
2023-05-20T18:28:59.344Z,7.10
2023-05-20T18:31:28.268Z,8.00
2023-05-20T18:33:57.549Z,7.00
2023-05-20T18:36:28.088Z,8.20
2023-05-20T18:38:57.053Z,9.70
2023-05-20T18:41:32.334Z,9.80
2023-05-20T18:44:08.980Z,11.40
2023-05-20T18:46:37.956Z,13.50
2023-05-20T18:49:07.150Z,14.10
2023-05-20T18:51:36.151Z,13.20
2023-05-20T18:54:05.545Z,11.00
2023-05-20T18:56:34.999Z,10.70
2023-05-20T18:59:04.034Z,9.00
2023-05-20T19:01:34.330Z,7.80
2023-05-20T19:04:03.352Z,8.40
2023-05-20T19:06:35.742Z,8.20
2023-05-20T19:09:05.026Z,7.60
2023-05-20T19:11:35.141Z,8.70
2023-05-20T19:14:05.486Z,7.60
2023-05-20T19:16:34.705Z,7.50
2023-05-20T19:19:03.985Z,7.70
2023-05-20T19:21:33.298Z,9.10
2023-05-20T19:24:02.461Z,7.70
2023-05-20T19:26:31.535Z,7.70
2023-05-20T19:29:00.434Z,7.30
2023-05-20T19:31:29.713Z,9.20
2023-05-20T19:33:58.942Z,8.80
2023-05-20T19:36:28.041Z,8.00
2023-05-20T19:38:58.862Z,7.40
2023-05-20T19:41:27.849Z,8.60
2023-05-20T19:43:56.853Z,7.90
2023-05-20T19:46:26.283Z,8.30
2023-05-20T19:48:55.708Z,8.50
2023-05-20T19:51:25.050Z,8.30
2023-05-20T19:53:54.581Z,9.10
2023-05-20T19:56:24.568Z,8.50
2023-05-20T19:58:53.885Z,8.70
2023-05-20T20:01:23.028Z,10.20
2023-05-20T20:03:51.951Z,11.00
2023-05-20T20:06:21.052Z,9.20
2023-05-20T20:08:50.145Z,8.50
2023-05-20T20:11:19.097Z,8.80
2023-05-20T20:13:48.035Z,9.60
2023-05-20T20:16:17.986Z,9.80
2023-05-20T20:18:47.083Z,10.20
2023-05-20T20:21:16.041Z,9.50
2023-05-20T20:23:45.028Z,8.90
2023-05-20T20:26:14.739Z,9.60
2023-05-20T20:28:43.729Z,10.50
2023-05-20T20:31:12.706Z,9.00
2023-05-20T20:33:42.563Z,10.00
2023-05-20T20:36:11.629Z,10.10
2023-05-20T20:38:40.504Z,11.60
2023-05-20T20:41:09.884Z,9.50
2023-05-20T20:43:38.891Z,10.00
2023-05-20T20:46:07.893Z,9.70
2023-05-20T20:48:36.893Z,9.30
2023-05-20T20:51:06.094Z,8.90
2023-05-20T20:53:34.871Z,9.10
2023-05-20T20:56:04.274Z,11.10
2023-05-20T20:58:35.644Z,9.70
2023-05-20T21:01:06.113Z,9.50
2023-05-20T21:03:35.154Z,8.10
2023-05-20T21:06:04.375Z,11.90
2023-05-20T21:08:33.627Z,9.00
2023-05-20T21:11:02.634Z,11.60
2023-05-20T21:13:31.514Z,8.90
2023-05-20T21:16:00.655Z,9.00
2023-05-20T21:18:29.615Z,9.40
2023-05-20T21:20:59.012Z,10.10
2023-05-20T21:23:27.915Z,8.80
2023-05-20T21:25:59.031Z,9.40
2023-05-20T21:28:27.931Z,10.50
2023-05-20T21:30:56.941Z,11.10
2023-05-20T21:33:25.903Z,12.30
2023-05-20T21:35:54.911Z,9.40
2023-05-20T21:38:23.995Z,8.80
2023-05-20T21:40:52.968Z,8.60
2023-05-20T21:43:21.969Z,8.50
2023-05-20T21:45:51.762Z,8.80
2023-05-20T21:48:21.087Z,8.50
2023-05-20T21:50:49.956Z,9.90
2023-05-20T21:53:18.861Z,8.20
2023-05-20T21:55:47.867Z,10.10
2023-05-20T21:58:16.752Z,8.20
2023-05-20T22:00:45.842Z,8.80
2023-05-20T22:03:15.151Z,9.40
2023-05-20T22:05:46.816Z,10.00
2023-05-20T22:08:17.647Z,8.40
2023-05-20T22:10:47.538Z,8.40
2023-05-20T22:13:17.859Z,8.80
2023-05-20T22:15:46.756Z,8.30
2023-05-20T22:18:15.576Z,7.50
2023-05-20T22:20:44.750Z,8.80
2023-05-20T22:23:13.810Z,7.60
2023-05-20T22:25:42.726Z,7.80
2023-05-20T22:28:11.610Z,6.70
2023-05-20T22:30:41.025Z,6.80
2023-05-20T22:33:09.795Z,7.80
2023-05-20T22:35:38.810Z,6.50
2023-05-20T22:38:07.782Z,7.40
2023-05-20T22:40:36.872Z,7.70
2023-05-20T22:43:06.217Z,7.10
2023-05-20T22:45:35.530Z,8.10
2023-05-20T22:48:05.528Z,7.60
2023-05-20T22:50:35.750Z,7.10
2023-05-20T22:53:04.592Z,6.30
2023-05-20T22:55:34.093Z,6.80
2023-05-20T22:58:03.299Z,8.00
2023-05-20T23:00:32.597Z,7.70
2023-05-20T23:03:01.788Z,6.50
2023-05-20T23:05:31.498Z,6.00
2023-05-20T23:08:00.531Z,7.10
2023-05-20T23:10:29.497Z,7.10
2023-05-20T23:12:58.691Z,7.20
2023-05-20T23:15:28.444Z,6.80
2023-05-20T23:17:57.516Z,7.80
2023-05-20T23:20:29.608Z,8.80
2023-05-20T23:23:01.522Z,7.20
2023-05-20T23:25:36.553Z,7.30
2023-05-20T23:28:06.156Z,8.90
2023-05-20T23:30:36.368Z,8.10
2023-05-20T23:33:05.353Z,8.30
2023-05-20T23:35:34.554Z,8.80
2023-05-20T23:38:03.675Z,8.50
2023-05-20T23:40:32.746Z,7.00
2023-05-20T23:43:01.972Z,8.50
2023-05-20T23:45:31.130Z,7.50
2023-05-20T23:48:01.942Z,7.50
2023-05-20T23:50:32.991Z,7.40
2023-05-20T23:53:01.895Z,8.50
2023-05-20T23:55:32.354Z,8.20
2023-05-20T23:58:01.441Z,8.10
